createdAt,value
2018-02-08T00:00:25.568Z,-4.25
2018-02-08T00:01:26.132Z,-4.32
2018-02-08T00:02:26.699Z,-4.22
2018-02-08T00:03:27.262Z,-4.30
2018-02-08T00:04:27.833Z,-4.07
2018-02-08T00:05:28.390Z,-4.21
2018-02-08T00:06:28.954Z,-4.07
2018-02-08T00:07:29.519Z,-4.21
2018-02-08T00:08:30.085Z,-4.39
2018-02-08T00:09:30.649Z,-4.30
2018-02-08T00:10:31.215Z,-4.45
2018-02-08T00:11:31.778Z,-4.28
2018-02-08T00:12:32.344Z,-4.25
2018-02-08T00:13:32.910Z,-4.31
2018-02-08T00:14:33.474Z,-4.25
2018-02-08T00:15:34.039Z,-4.21
2018-02-08T00:16:34.605Z,-4.14
2018-02-08T00:17:35.184Z,-4.27
2018-02-08T00:18:35.748Z,-4.34
2018-02-08T00:19:36.328Z,-4.34
2018-02-08T00:20:36.894Z,-4.32
2018-02-08T00:21:37.458Z,-4.45
2018-02-08T00:22:38.024Z,-4.34
2018-02-08T00:23:38.587Z,-4.42
2018-02-08T00:24:39.154Z,-4.32
2018-02-08T00:25:39.732Z,-4.39
2018-02-08T00:26:40.299Z,-4.32
2018-02-08T00:27:40.862Z,-4.35
2018-02-08T00:28:41.428Z,-4.30
2018-02-08T00:29:41.991Z,-4.07
2018-02-08T00:30:42.556Z,-4.24
2018-02-08T00:31:43.121Z,-4.32
2018-02-08T00:32:43.686Z,-4.43
2018-02-08T00:33:44.250Z,-4.41
2018-02-08T00:34:44.815Z,-4.14
2018-02-08T00:35:45.380Z,-4.17
2018-02-08T00:36:45.945Z,-4.35
2018-02-08T00:37:46.509Z,-4.41
2018-02-08T00:38:47.073Z,-4.42
2018-02-08T00:39:47.638Z,-4.42
2018-02-08T00:40:48.203Z,-4.41
2018-02-08T00:41:48.769Z,-4.43
2018-02-08T00:42:49.334Z,-4.42
2018-02-08T00:43:49.898Z,-4.53
2018-02-08T00:44:50.476Z,-4.41
2018-02-08T00:45:51.040Z,-4.39
2018-02-08T00:46:51.605Z,-4.39
2018-02-08T00:47:52.170Z,-4.53
2018-02-08T00:48:52.735Z,-4.38
2018-02-08T00:49:53.299Z,-4.39
2018-02-08T00:50:53.863Z,-4.39
2018-02-08T00:51:54.427Z,-4.49
2018-02-08T00:52:54.993Z,-4.48
2018-02-08T00:53:55.557Z,-4.60
2018-02-08T00:54:56.121Z,-4.63
2018-02-08T00:55:56.686Z,-4.63
2018-02-08T00:56:57.249Z,-4.60
2018-02-08T00:57:57.816Z,-4.45
2018-02-08T00:58:58.381Z,-4.53
2018-02-08T00:59:58.944Z,-4.55
2018-02-08T01:00:59.522Z,-4.52
2018-02-08T01:02:00.086Z,-4.53
2018-02-08T01:03:00.650Z,-4.43
2018-02-08T01:04:01.228Z,-4.31
2018-02-08T01:05:01.792Z,-4.39
2018-02-08T01:06:02.356Z,-4.39
2018-02-08T01:07:02.923Z,-4.52
2018-02-08T01:08:03.501Z,-4.46
2018-02-08T01:09:04.067Z,-4.35
2018-02-08T01:10:04.632Z,-4.32
2018-02-08T01:11:05.195Z,-4.32
2018-02-08T01:12:05.759Z,-4.43
2018-02-08T01:13:06.324Z,-4.31
2018-02-08T01:14:06.892Z,-4.34
2018-02-08T01:15:07.452Z,-4.13
2018-02-08T01:16:08.017Z,-4.17
2018-02-08T01:17:08.579Z,-4.27
2018-02-08T01:18:09.145Z,-4.22
2018-02-08T01:19:09.710Z,-4.16
2018-02-08T01:20:10.274Z,-4.27
2018-02-08T01:21:10.839Z,-4.38
2018-02-08T01:22:11.403Z,-4.30
2018-02-08T01:23:11.968Z,-4.39
2018-02-08T01:24:12.534Z,-4.46
2018-02-08T01:25:13.098Z,-4.52
2018-02-08T01:26:13.663Z,-4.50
2018-02-08T01:27:14.245Z,-4.45
2018-02-08T01:28:14.822Z,-4.52
2018-02-08T01:29:15.399Z,-4.50
2018-02-08T01:30:15.965Z,-4.60
2018-02-08T01:31:16.528Z,-4.59
2018-02-08T01:32:17.099Z,-4.60
2018-02-08T01:33:17.660Z,-4.49
2018-02-08T01:34:18.224Z,-4.42
2018-02-08T01:35:18.787Z,-4.61
2018-02-08T01:36:19.351Z,-4.63
2018-02-08T01:37:19.916Z,-4.66
2018-02-08T01:38:20.482Z,-4.61
2018-02-08T01:39:21.044Z,-4.61
2018-02-08T01:40:21.624Z,-4.55
2018-02-08T01:41:22.172Z,-4.61
2018-02-08T01:42:22.739Z,-4.66
2018-02-08T01:43:23.302Z,-4.59
2018-02-08T01:44:23.868Z,-4.75
2018-02-08T01:45:24.480Z,-4.66
2018-02-08T01:46:25.045Z,-4.69
2018-02-08T01:47:25.610Z,-4.63
2018-02-08T01:48:26.175Z,-4.69
2018-02-08T01:49:26.739Z,-4.70
2018-02-08T01:50:27.305Z,-4.69
2018-02-08T01:51:27.870Z,-4.59
2018-02-08T01:52:28.435Z,-4.57
2018-02-08T01:53:28.999Z,-4.69
2018-02-08T01:54:29.563Z,-4.78
2018-02-08T01:55:30.128Z,-4.79
2018-02-08T01:56:30.695Z,-4.82
2018-02-08T01:57:31.257Z,-4.79
2018-02-08T01:58:31.822Z,-4.61
2018-02-08T01:59:32.389Z,-4.53
2018-02-08T02:00:32.953Z,-4.67
2018-02-08T02:01:33.518Z,-4.66
2018-02-08T02:02:34.083Z,-4.64
2018-02-08T02:03:34.646Z,-4.81
2018-02-08T02:04:35.211Z,-4.78
2018-02-08T02:05:35.774Z,-4.71
2018-02-08T02:06:36.338Z,-4.64
2018-02-08T02:07:36.902Z,-4.73
2018-02-08T02:08:37.465Z,-4.50
2018-02-08T02:09:38.030Z,-4.61
2018-02-08T02:10:38.595Z,-4.71
2018-02-08T02:11:39.161Z,-4.64
2018-02-08T02:12:39.773Z,-4.64
2018-02-08T02:13:40.290Z,-4.60
2018-02-08T02:14:40.856Z,-4.64
2018-02-08T02:15:41.420Z,-4.59
2018-02-08T02:16:41.985Z,-4.67
2018-02-08T02:17:42.550Z,-4.73
2018-02-08T02:18:43.114Z,-4.82
2018-02-08T02:19:43.681Z,-4.79
2018-02-08T02:20:44.244Z,-4.81
2018-02-08T02:21:44.809Z,-4.81
2018-02-08T02:22:45.372Z,-5.00
2018-02-08T02:23:45.937Z,-4.92
2018-02-08T02:24:46.504Z,-4.92
2018-02-08T02:25:47.068Z,-4.88
2018-02-08T02:26:47.632Z,-4.98
2018-02-08T02:27:48.197Z,-4.98
2018-02-08T02:28:48.762Z,-4.92
2018-02-08T02:29:49.326Z,-4.99
2018-02-08T02:30:49.890Z,-4.98
2018-02-08T02:31:50.454Z,-4.92
2018-02-08T02:32:51.020Z,-4.95
2018-02-08T02:33:51.583Z,-4.92
2018-02-08T02:34:52.149Z,-4.89
2018-02-08T02:35:52.713Z,-4.96
2018-02-08T02:36:53.278Z,-4.95
2018-02-08T02:37:53.846Z,-4.91
2018-02-08T02:38:54.407Z,-4.98
2018-02-08T02:39:54.971Z,-4.95
2018-02-08T02:40:55.585Z,-4.92
2018-02-08T02:41:56.149Z,-4.95
2018-02-08T02:42:56.713Z,-5.00
2018-02-08T02:43:57.288Z,-5.02
2018-02-08T02:44:57.842Z,-4.96
2018-02-08T02:45:58.409Z,-4.99
2018-02-08T02:46:58.971Z,-4.95
2018-02-08T02:47:59.535Z,-4.95
2018-02-08T02:49:00.100Z,-4.98
2018-02-08T02:50:00.666Z,-4.88
2018-02-08T02:51:01.230Z,-4.67
2018-02-08T02:52:01.795Z,-4.64
2018-02-08T02:53:02.364Z,-4.70
2018-02-08T02:54:02.923Z,-4.70
2018-02-08T02:55:03.488Z,-4.82
2018-02-08T02:56:04.054Z,-4.92
2018-02-08T02:57:04.624Z,-4.99
2018-02-08T02:58:05.181Z,-5.02
2018-02-08T02:59:05.748Z,-4.99
2018-02-08T03:00:06.311Z,-5.03
2018-02-08T03:01:06.876Z,-5.10
2018-02-08T03:02:07.444Z,-4.98
2018-02-08T03:03:08.004Z,-4.88
2018-02-08T03:04:08.569Z,-4.87
2018-02-08T03:05:09.134Z,-4.89
2018-02-08T03:06:09.699Z,-4.96
2018-02-08T03:07:10.263Z,-4.96
2018-02-08T03:08:10.828Z,-5.06
2018-02-08T03:09:11.395Z,-5.09
2018-02-08T03:10:11.973Z,-5.02
2018-02-08T03:11:12.550Z,-5.18
2018-02-08T03:12:13.115Z,-5.13
2018-02-08T03:13:13.681Z,-5.13
2018-02-08T03:14:14.245Z,-5.24
2018-02-08T03:15:14.809Z,-5.24
2018-02-08T03:16:15.384Z,-5.14
2018-02-08T03:17:15.948Z,-5.13
2018-02-08T03:18:16.514Z,-5.19
2018-02-08T03:19:17.080Z,-5.19
2018-02-08T03:20:17.644Z,-5.18
2018-02-08T03:21:18.209Z,-5.14
2018-02-08T03:22:18.785Z,-5.18
2018-02-08T03:23:19.379Z,-5.19
2018-02-08T03:24:19.913Z,-5.22
2018-02-08T03:25:20.479Z,-5.21
2018-02-08T03:26:21.043Z,-5.18
2018-02-08T03:27:21.607Z,-5.25
2018-02-08T03:28:22.171Z,-5.03
2018-02-08T03:29:22.734Z,-4.95
2018-02-08T03:30:23.301Z,-5.03
2018-02-08T03:31:23.864Z,-4.98
2018-02-08T03:32:24.427Z,-5.13
2018-02-08T03:33:24.992Z,-5.14
2018-02-08T03:34:25.557Z,-5.24
2018-02-08T03:35:26.125Z,-5.27
2018-02-08T03:36:26.701Z,-5.29
2018-02-08T03:37:27.280Z,-5.22
2018-02-08T03:38:27.845Z,-5.21
2018-02-08T03:39:28.409Z,-5.25
2018-02-08T03:40:28.986Z,-5.14
2018-02-08T03:41:29.550Z,-5.14
2018-02-08T03:42:30.115Z,-4.99
2018-02-08T03:43:30.679Z,-5.02
2018-02-08T03:44:31.244Z,-5.13
2018-02-08T03:45:31.808Z,-5.03
2018-02-08T03:46:32.373Z,-5.14
2018-02-08T03:47:32.938Z,-5.10
2018-02-08T03:48:33.504Z,-5.14
2018-02-08T03:49:34.067Z,-5.13
2018-02-08T03:50:34.634Z,-5.14
2018-02-08T03:51:35.196Z,-5.02
2018-02-08T03:52:35.760Z,-5.08
2018-02-08T03:53:36.326Z,-5.09
2018-02-08T03:54:36.905Z,-5.03
2018-02-08T03:55:37.469Z,-5.17
2018-02-08T03:56:38.082Z,-5.17
2018-02-08T03:57:38.647Z,-5.13
2018-02-08T03:58:39.212Z,-5.27
2018-02-08T03:59:39.774Z,-5.25
2018-02-08T04:00:40.353Z,-5.25
2018-02-08T04:01:40.917Z,-5.18
2018-02-08T04:02:41.480Z,-5.25
2018-02-08T04:03:42.046Z,-5.27
2018-02-08T04:04:42.611Z,-5.33
2018-02-08T04:05:43.175Z,-5.40
2018-02-08T04:06:43.738Z,-5.51
2018-02-08T04:07:44.304Z,-5.40
2018-02-08T04:08:44.872Z,-5.36
2018-02-08T04:09:45.435Z,-5.29
2018-02-08T04:10:46.016Z,-5.29
2018-02-08T04:11:46.577Z,-5.22
2018-02-08T04:12:47.141Z,-5.28
2018-02-08T04:13:47.706Z,-5.31
2018-02-08T04:14:48.272Z,-5.17
2018-02-08T04:15:48.836Z,-5.17
2018-02-08T04:16:49.400Z,-5.35
2018-02-08T04:17:49.965Z,-5.25
2018-02-08T04:18:50.532Z,-5.14
2018-02-08T04:19:51.096Z,-5.00
2018-02-08T04:20:51.674Z,-5.06
2018-02-08T04:21:52.238Z,-5.21
2018-02-08T04:22:52.802Z,-5.22
2018-02-08T04:23:53.363Z,-5.27
2018-02-08T04:24:53.926Z,-5.18
2018-02-08T04:25:54.497Z,-5.14
2018-02-08T04:26:55.065Z,-5.10
2018-02-08T04:27:55.624Z,-5.24
2018-02-08T04:28:56.189Z,-5.39
2018-02-08T04:29:56.755Z,-5.45
2018-02-08T04:30:57.319Z,-5.42
2018-02-08T04:31:57.883Z,-5.27
2018-02-08T04:32:58.450Z,-5.27
2018-02-08T04:33:59.012Z,-5.45
2018-02-08T04:34:59.576Z,-5.42
2018-02-08T04:36:00.141Z,-5.31
2018-02-08T04:37:00.704Z,-5.49
2018-02-08T04:38:01.268Z,-5.39
2018-02-08T04:39:01.834Z,-5.56
2018-02-08T04:40:02.399Z,-5.53
2018-02-08T04:41:02.963Z,-5.46
2018-02-08T04:42:03.528Z,-5.33
2018-02-08T04:43:04.090Z,-5.40
2018-02-08T04:44:04.657Z,-5.51
2018-02-08T04:45:05.220Z,-5.43
2018-02-08T04:46:05.784Z,-5.39
2018-02-08T04:47:06.349Z,-5.58
2018-02-08T04:48:06.928Z,-5.56
2018-02-08T04:49:07.507Z,-5.56
2018-02-08T04:50:08.070Z,-5.57
2018-02-08T04:51:08.635Z,-5.64
2018-02-08T04:52:09.214Z,-5.57
2018-02-08T04:53:09.779Z,-5.42
2018-02-08T04:54:10.346Z,-5.49
2018-02-08T04:55:10.906Z,-5.53
2018-02-08T04:56:11.469Z,-5.60
2018-02-08T04:57:12.033Z,-5.36
2018-02-08T04:58:12.597Z,-5.38
2018-02-08T04:59:13.163Z,-5.29
2018-02-08T05:00:13.726Z,-5.24
2018-02-08T05:01:14.305Z,-5.19
2018-02-08T05:02:14.869Z,-5.21
2018-02-08T05:03:15.433Z,-5.28
2018-02-08T05:04:15.999Z,-5.33
2018-02-08T05:05:16.564Z,-5.24
2018-02-08T05:06:17.128Z,-5.24
2018-02-08T05:07:17.691Z,-5.35
2018-02-08T05:08:18.255Z,-5.38
2018-02-08T05:09:18.819Z,-5.39
2018-02-08T05:10:19.384Z,-5.45
2018-02-08T05:11:19.949Z,-5.57
2018-02-08T05:12:20.517Z,-5.60
2018-02-08T05:13:21.075Z,-5.39
2018-02-08T05:14:21.653Z,-5.47
2018-02-08T05:15:22.216Z,-5.58
2018-02-08T05:16:22.782Z,-5.64
2018-02-08T05:17:23.346Z,-5.67
2018-02-08T05:18:23.911Z,-5.63
2018-02-08T05:19:24.475Z,-5.66
2018-02-08T05:20:25.041Z,-5.61
2018-02-08T05:21:25.610Z,-5.68
2018-02-08T05:22:26.169Z,-5.74
2018-02-08T05:23:26.733Z,-5.61
2018-02-08T05:24:27.297Z,-5.67
2018-02-08T05:25:27.862Z,-5.67
2018-02-08T05:26:28.430Z,-5.66
2018-02-08T05:27:28.991Z,-5.74
2018-02-08T05:28:29.555Z,-5.78
2018-02-08T05:29:30.130Z,-5.64
2018-02-08T05:30:30.695Z,-5.68
2018-02-08T05:31:31.259Z,-5.61
2018-02-08T05:32:31.823Z,-5.71
2018-02-08T05:33:32.386Z,-5.74
2018-02-08T05:34:32.951Z,-5.63
2018-02-08T05:35:33.534Z,-5.72
2018-02-08T05:36:34.079Z,-5.60
2018-02-08T05:37:34.645Z,-5.66
2018-02-08T05:38:35.209Z,-5.76
2018-02-08T05:39:35.773Z,-5.82
2018-02-08T05:40:36.336Z,-5.75
2018-02-08T05:41:36.903Z,-5.78
2018-02-08T05:42:37.466Z,-5.68
2018-02-08T05:43:38.031Z,-5.79
2018-02-08T05:44:38.596Z,-5.79
2018-02-08T05:45:39.161Z,-5.67
2018-02-08T05:46:39.725Z,-5.68
2018-02-08T05:47:40.288Z,-5.81
2018-02-08T05:48:40.855Z,-5.68
2018-02-08T05:49:41.416Z,-5.64
2018-02-08T05:50:41.982Z,-5.53
2018-02-08T05:51:42.545Z,-5.66
2018-02-08T05:52:43.109Z,-5.64
2018-02-08T05:53:43.673Z,-5.66
2018-02-08T05:54:44.237Z,-5.61
2018-02-08T05:55:44.814Z,-5.57
2018-02-08T05:56:45.379Z,-5.40
2018-02-08T05:57:45.945Z,-5.49
2018-02-08T05:58:46.510Z,-5.61
2018-02-08T05:59:47.088Z,-5.71
2018-02-08T06:00:47.653Z,-5.78
2018-02-08T06:01:48.216Z,-5.79
2018-02-08T06:02:48.786Z,-5.72
2018-02-08T06:03:49.359Z,-5.81
2018-02-08T06:04:49.922Z,-5.79
2018-02-08T06:05:50.495Z,-5.68
2018-02-08T06:06:51.068Z,-5.78
2018-02-08T06:07:51.632Z,-5.78
2018-02-08T06:08:52.196Z,-5.66
2018-02-08T06:09:52.772Z,-5.66
2018-02-08T06:10:53.335Z,-5.57
2018-02-08T06:11:53.900Z,-5.61
2018-02-08T06:12:54.465Z,-5.66
2018-02-08T06:13:55.029Z,-5.66
2018-02-08T06:14:55.593Z,-5.67
2018-02-08T06:15:56.156Z,-5.64
2018-02-08T06:16:56.722Z,-5.61
2018-02-08T06:17:57.288Z,-5.67
2018-02-08T06:18:57.853Z,-5.66
2018-02-08T06:19:58.416Z,-5.67
2018-02-08T06:20:58.977Z,-5.79
2018-02-08T06:21:59.542Z,-5.93
2018-02-08T06:23:00.108Z,-5.90
2018-02-08T06:24:00.671Z,-5.79
2018-02-08T06:25:01.235Z,-5.78
2018-02-08T06:26:01.799Z,-5.63
2018-02-08T06:27:02.377Z,-5.63
2018-02-08T06:28:02.944Z,-5.64
2018-02-08T06:29:03.510Z,-5.64
2018-02-08T06:30:04.071Z,-5.81
2018-02-08T06:31:04.634Z,-5.95
2018-02-08T06:32:05.197Z,-5.68
2018-02-08T06:33:05.762Z,-5.78
2018-02-08T06:34:06.326Z,-5.79
2018-02-08T06:35:06.888Z,-5.63
2018-02-08T06:36:07.451Z,-5.81
2018-02-08T06:37:08.019Z,-5.92
2018-02-08T06:38:08.578Z,-5.97
2018-02-08T06:39:09.145Z,-6.08
2018-02-08T06:40:09.708Z,-6.07
2018-02-08T06:41:10.285Z,-5.64
2018-02-08T06:42:10.849Z,-5.46
2018-02-08T06:43:11.412Z,-5.45
2018-02-08T06:44:11.975Z,-5.72
2018-02-08T06:45:12.540Z,-5.63
2018-02-08T06:46:13.169Z,-5.63
2018-02-08T06:47:13.682Z,-5.78
2018-02-08T06:48:14.246Z,-5.75
2018-02-08T06:49:14.823Z,-5.71
2018-02-08T06:50:15.387Z,-5.75
2018-02-08T06:51:15.950Z,-5.72
2018-02-08T06:52:16.521Z,-5.84
2018-02-08T06:53:17.079Z,-5.67
2018-02-08T06:54:17.647Z,-5.81
2018-02-08T06:55:18.210Z,-5.39
2018-02-08T06:56:18.777Z,-5.38
2018-02-08T06:57:19.354Z,-5.45
2018-02-08T06:58:19.933Z,-5.40
2018-02-08T06:59:20.497Z,-5.63
2018-02-08T07:00:21.063Z,-5.74
2018-02-08T07:01:21.629Z,-5.78
2018-02-08T07:02:22.192Z,-5.81
2018-02-08T07:03:22.772Z,-5.79
2018-02-08T07:04:23.336Z,-5.71
2018-02-08T07:05:23.902Z,-5.64
2018-02-08T07:06:24.465Z,-5.63
2018-02-08T07:07:25.033Z,-5.63
2018-02-08T07:08:25.597Z,-5.61
2018-02-08T07:09:26.175Z,-5.43
2018-02-08T07:10:26.740Z,-5.42
2018-02-08T07:11:27.306Z,-5.58
2018-02-08T07:12:27.884Z,-5.61
2018-02-08T07:13:28.450Z,-5.64
2018-02-08T07:14:29.017Z,-5.39
2018-02-08T07:15:29.594Z,-5.31
2018-02-08T07:16:30.159Z,-5.36
2018-02-08T07:17:30.721Z,-4.91
2018-02-08T07:18:31.296Z,-5.03
2018-02-08T07:19:31.865Z,-5.35
2018-02-08T07:20:32.429Z,-5.54
2018-02-08T07:21:32.994Z,-5.33
2018-02-08T07:22:33.558Z,-5.14
2018-02-08T07:23:34.122Z,-5.19
2018-02-08T07:24:34.689Z,-5.38
2018-02-08T07:25:35.254Z,-5.40
2018-02-08T07:26:35.820Z,-5.38
2018-02-08T07:27:36.389Z,-5.36
2018-02-08T07:28:36.955Z,-5.27
2018-02-08T07:29:37.521Z,-5.31
2018-02-08T07:30:38.101Z,-5.18
2018-02-08T07:31:38.666Z,-4.96
2018-02-08T07:32:39.233Z,-5.05
2018-02-08T07:33:39.799Z,-5.08
2018-02-08T07:34:40.364Z,-5.08
2018-02-08T07:35:40.931Z,-4.98
2018-02-08T07:36:41.498Z,-5.05
2018-02-08T07:37:42.070Z,-5.05
2018-02-08T07:38:42.637Z,-5.02
2018-02-08T07:39:43.212Z,-4.91
2018-02-08T07:40:43.779Z,-4.89
2018-02-08T07:41:44.344Z,-5.00
2018-02-08T07:42:44.912Z,-5.14
2018-02-08T07:43:45.478Z,-5.28
2018-02-08T07:44:46.045Z,-5.25
2018-02-08T07:45:46.611Z,-5.05
2018-02-08T07:46:47.180Z,-4.85
2018-02-08T07:47:47.752Z,-4.67
2018-02-08T07:48:48.316Z,-4.69
2018-02-08T07:49:48.885Z,-4.78
2018-02-08T07:50:49.452Z,-4.85
2018-02-08T07:51:50.020Z,-4.64
2018-02-08T07:52:50.589Z,-4.64
2018-02-08T07:53:51.157Z,-4.41
2018-02-08T07:54:51.740Z,-4.31
2018-02-08T07:55:52.307Z,-4.35
2018-02-08T07:56:52.874Z,-4.59
2018-02-08T07:57:53.455Z,-4.57
2018-02-08T07:58:54.024Z,-4.57
2018-02-08T07:59:54.607Z,-4.55
2018-02-08T08:00:55.174Z,-4.41
2018-02-08T08:01:55.739Z,-4.35
2018-02-08T08:02:56.309Z,-4.39
2018-02-08T08:03:56.877Z,-4.34
2018-02-08T08:04:57.445Z,-4.39
2018-02-08T08:05:58.028Z,-4.42
2018-02-08T08:06:58.598Z,-4.14
2018-02-08T08:07:59.179Z,-4.21
2018-02-08T08:08:59.748Z,-4.02
2018-02-08T08:10:00.315Z,-4.09
2018-02-08T08:11:00.882Z,-4.21
2018-02-08T08:12:01.449Z,-4.12
2018-02-08T08:13:02.031Z,-4.35
2018-02-08T08:14:02.599Z,-4.14
2018-02-08T08:15:03.167Z,-4.20
2018-02-08T08:16:03.737Z,-4.13
2018-02-08T08:17:04.304Z,-4.10
2018-02-08T08:18:04.872Z,-4.13
2018-02-08T08:19:05.450Z,-3.95
2018-02-08T08:20:06.030Z,-3.70
2018-02-08T08:21:06.597Z,-3.86
2018-02-08T08:22:07.165Z,-3.96
2018-02-08T08:23:07.735Z,-4.09
2018-02-08T08:24:08.302Z,-4.03
2018-02-08T08:25:08.869Z,-3.89
2018-02-08T08:26:09.456Z,-3.85
2018-02-08T08:27:10.034Z,-3.99
2018-02-08T08:28:10.600Z,-3.96
2018-02-08T08:29:11.170Z,-3.69
2018-02-08T08:30:11.738Z,-3.56
2018-02-08T08:31:12.306Z,-3.83
2018-02-08T08:32:12.875Z,-3.59
2018-02-08T08:33:13.443Z,-3.59
2018-02-08T08:34:14.013Z,-3.69
2018-02-08T08:35:14.581Z,-3.61
2018-02-08T08:36:15.167Z,-3.59
2018-02-08T08:37:15.732Z,-3.72
2018-02-08T08:38:16.301Z,-3.78
2018-02-08T08:39:16.870Z,-3.80
2018-02-08T08:40:17.437Z,-3.77
2018-02-08T08:41:18.020Z,-3.66
2018-02-08T08:42:18.589Z,-3.70
2018-02-08T08:43:19.155Z,-3.78
2018-02-08T08:44:19.725Z,-3.77
2018-02-08T08:45:20.292Z,-3.69
2018-02-08T08:46:20.873Z,-3.66
2018-02-08T08:47:21.440Z,-3.72
2018-02-08T08:48:22.007Z,-3.69
2018-02-08T08:49:22.575Z,-3.56
2018-02-08T08:50:23.143Z,-3.46
2018-02-08T08:51:23.708Z,-3.40
2018-02-08T08:52:24.276Z,-3.27
2018-02-08T08:53:24.845Z,-3.38
2018-02-08T08:54:25.410Z,-3.27
2018-02-08T08:55:25.980Z,-3.31
2018-02-08T08:56:26.549Z,-3.37
2018-02-08T08:57:27.117Z,-3.30
2018-02-08T08:58:27.685Z,-3.38
2018-02-08T08:59:28.254Z,-3.41
2018-02-08T09:00:28.819Z,-3.35
2018-02-08T09:01:29.386Z,-3.25
2018-02-08T09:02:29.954Z,-3.33
2018-02-08T09:03:30.535Z,-3.30
2018-02-08T09:04:31.103Z,-3.45
2018-02-08T09:05:31.677Z,-3.16
2018-02-08T09:06:32.255Z,-3.19
2018-02-08T09:07:32.824Z,-3.09
2018-02-08T09:08:33.393Z,-3.07
2018-02-08T09:09:33.962Z,-3.30
2018-02-08T09:10:34.530Z,-3.33
2018-02-08T09:11:35.105Z,-3.35
2018-02-08T09:12:35.668Z,-3.31
2018-02-08T09:13:36.236Z,-3.34
2018-02-08T09:14:36.805Z,-2.89
2018-02-08T09:15:37.387Z,-2.91
2018-02-08T09:16:37.955Z,-2.92
2018-02-08T09:17:38.547Z,-2.97
2018-02-08T09:18:39.092Z,-2.99
2018-02-08T09:19:39.660Z,-2.99
2018-02-08T09:20:40.227Z,-2.84
2018-02-08T09:21:40.797Z,-2.95
2018-02-08T09:22:41.384Z,-2.94
2018-02-08T09:23:41.931Z,-2.80
2018-02-08T09:24:42.502Z,-2.78
2018-02-08T09:25:43.097Z,-2.69
2018-02-08T09:26:43.657Z,-2.69
2018-02-08T09:27:44.225Z,-2.76
2018-02-08T09:28:44.793Z,-2.65
2018-02-08T09:29:45.362Z,-2.74
2018-02-08T09:30:45.931Z,-2.76
2018-02-08T09:31:46.501Z,-2.69
2018-02-08T09:32:47.070Z,-2.73
2018-02-08T09:33:47.638Z,-2.78
2018-02-08T09:34:48.206Z,-2.74
2018-02-08T09:35:48.776Z,-2.73
2018-02-08T09:36:49.344Z,-2.63
2018-02-08T09:37:49.913Z,-2.69
2018-02-08T09:38:50.488Z,-2.69
2018-02-08T09:39:51.068Z,-2.59
2018-02-08T09:40:51.650Z,-2.58
2018-02-08T09:41:52.218Z,-2.52
2018-02-08T09:42:52.785Z,-2.42
2018-02-08T09:43:53.357Z,-2.45
2018-02-08T09:44:53.938Z,-2.37
2018-02-08T09:45:54.505Z,-2.47
2018-02-08T09:46:55.072Z,-2.32
2018-02-08T09:47:55.644Z,-2.23
2018-02-08T09:48:56.212Z,-2.25
2018-02-08T09:49:56.781Z,-2.21
2018-02-08T09:50:57.350Z,-2.10
2018-02-08T09:51:57.919Z,-2.05
2018-02-08T09:52:58.489Z,-2.01
2018-02-08T09:53:59.071Z,-2.05
2018-02-08T09:54:59.640Z,-2.05
2018-02-08T09:56:00.224Z,-2.00
2018-02-08T09:57:00.792Z,-2.02
2018-02-08T09:58:01.362Z,-1.94
2018-02-08T09:59:01.930Z,-1.84
2018-02-08T10:00:02.499Z,-1.79
2018-02-08T10:01:03.068Z,-1.79
2018-02-08T10:02:03.638Z,-1.76
2018-02-08T10:03:04.207Z,-1.80
2018-02-08T10:04:04.776Z,-1.74
2018-02-08T10:05:05.395Z,-1.69
2018-02-08T10:06:05.966Z,-1.68
2018-02-08T10:07:06.536Z,-1.69
2018-02-08T10:08:07.105Z,-1.68
2018-02-08T10:09:07.674Z,-1.68
2018-02-08T10:10:08.244Z,-1.72
2018-02-08T10:11:08.827Z,-1.58
2018-02-08T10:12:09.397Z,-1.54
2018-02-08T10:13:09.981Z,-1.56
2018-02-08T10:14:10.550Z,-1.50
2018-02-08T10:15:11.125Z,-1.51
2018-02-08T10:16:11.691Z,-1.46
2018-02-08T10:17:12.260Z,-1.41
2018-02-08T10:18:12.831Z,-1.35
2018-02-08T10:19:13.400Z,-1.41
2018-02-08T10:20:13.969Z,-1.40
2018-02-08T10:21:14.540Z,-1.37
2018-02-08T10:22:15.110Z,-1.25
2018-02-08T10:23:15.678Z,-1.23
2018-02-08T10:24:16.249Z,-1.15
2018-02-08T10:25:16.818Z,-1.11
2018-02-08T10:26:17.389Z,-1.11
2018-02-08T10:27:17.957Z,-1.25
2018-02-08T10:28:18.526Z,-1.12
2018-02-08T10:29:19.095Z,-1.20
2018-02-08T10:30:19.664Z,-1.19
2018-02-08T10:31:20.232Z,-1.15
2018-02-08T10:32:20.801Z,-1.08
2018-02-08T10:33:21.371Z,-0.94
2018-02-08T10:34:21.939Z,-0.93
2018-02-08T10:35:22.559Z,-0.82
2018-02-08T10:36:23.128Z,-0.91
2018-02-08T10:37:23.700Z,-1.04
2018-02-08T10:38:24.268Z,-0.97
2018-02-08T10:39:24.837Z,-0.85
2018-02-08T10:40:25.407Z,-0.74
2018-02-08T10:41:25.990Z,-0.72
2018-02-08T10:42:26.559Z,-0.70
2018-02-08T10:43:27.130Z,-0.72
2018-02-08T10:44:27.713Z,-0.72
2018-02-08T10:45:28.297Z,-0.64
2018-02-08T10:46:28.881Z,-0.62
2018-02-08T10:47:29.453Z,-0.71
2018-02-08T10:48:30.020Z,-0.54
2018-02-08T10:49:30.589Z,-0.39
2018-02-08T10:50:31.160Z,-0.39
2018-02-08T10:51:31.731Z,-0.43
2018-02-08T10:52:32.300Z,-0.39
2018-02-08T10:53:32.868Z,-0.54
2018-02-08T10:54:33.451Z,-0.52
2018-02-08T10:55:34.022Z,-0.52
2018-02-08T10:56:34.591Z,-0.38
2018-02-08T10:57:35.162Z,-0.34
2018-02-08T10:58:35.732Z,-0.36
2018-02-08T10:59:36.300Z,-0.36
2018-02-08T11:00:36.869Z,-0.38
2018-02-08T11:01:37.440Z,-0.32
2018-02-08T11:02:38.009Z,-0.29
2018-02-08T11:03:38.593Z,-0.18
2018-02-08T11:04:39.179Z,-0.26
2018-02-08T11:05:39.748Z,-0.10
2018-02-08T11:06:40.319Z,-0.14
2018-02-08T11:07:40.893Z,-0.10
2018-02-08T11:08:41.461Z,-0.08
2018-02-08T11:09:42.030Z,-0.10
2018-02-08T11:10:42.598Z,-0.06
2018-02-08T11:11:43.181Z,-0.11
2018-02-08T11:12:43.765Z,-0.14
2018-02-08T11:13:44.338Z,-0.20
2018-02-08T11:14:44.908Z,-0.18
2018-02-08T11:15:45.477Z,-0.18
2018-02-08T11:16:46.048Z,-0.18
2018-02-08T11:17:46.619Z,-0.11
2018-02-08T11:18:47.190Z,0.00
2018-02-08T11:19:47.758Z,0.08
2018-02-08T11:20:48.343Z,0.21
2018-02-08T11:21:48.911Z,0.08
2018-02-08T11:22:49.479Z,0.18
2018-02-08T11:23:50.054Z,0.29
2018-02-08T11:24:50.619Z,0.10
2018-02-08T11:25:51.201Z,0.11
2018-02-08T11:26:51.769Z,0.18
2018-02-08T11:27:52.339Z,0.25
2018-02-08T11:28:52.912Z,0.25
2018-02-08T11:29:53.478Z,0.19
2018-02-08T11:30:54.048Z,0.22
2018-02-08T11:31:54.619Z,0.23
2018-02-08T11:32:55.201Z,0.07
2018-02-08T11:33:55.769Z,0.11
2018-02-08T11:34:56.337Z,0.15
2018-02-08T11:35:56.907Z,0.31
2018-02-08T11:36:57.475Z,0.28
2018-02-08T11:37:58.046Z,0.25
2018-02-08T11:38:58.614Z,0.47
2018-02-08T11:39:59.181Z,0.49
2018-02-08T11:40:59.749Z,0.47
2018-02-08T11:42:00.320Z,0.55
2018-02-08T11:43:00.887Z,0.40
2018-02-08T11:44:01.463Z,0.25
2018-02-08T11:45:02.026Z,0.21
2018-02-08T11:46:02.596Z,0.29
2018-02-08T11:47:03.167Z,0.22
2018-02-08T11:48:03.750Z,0.29
2018-02-08T11:49:04.304Z,0.32
2018-02-08T11:50:04.874Z,0.22
2018-02-08T11:51:05.442Z,0.22
2018-02-08T11:52:06.012Z,0.31
2018-02-08T11:53:06.582Z,0.36
2018-02-08T11:54:07.151Z,0.52
2018-02-08T11:55:07.736Z,0.34
2018-02-08T11:56:08.290Z,0.39
2018-02-08T11:57:08.861Z,0.28
2018-02-08T11:58:09.431Z,0.23
2018-02-08T11:59:10.003Z,0.36
2018-02-08T12:00:10.571Z,0.36
2018-02-08T12:01:11.199Z,0.41
2018-02-08T12:02:11.775Z,0.50
2018-02-08T12:03:12.344Z,0.62
2018-02-08T12:04:12.913Z,0.69
2018-02-08T12:05:13.483Z,0.65
2018-02-08T12:06:14.054Z,0.50
2018-02-08T12:07:14.635Z,0.50
2018-02-08T12:08:15.205Z,0.56
2018-02-08T12:09:15.775Z,0.44
2018-02-08T12:10:16.345Z,0.46
2018-02-08T12:11:16.914Z,0.46
2018-02-08T12:12:17.484Z,0.60
2018-02-08T12:13:18.054Z,0.60
2018-02-08T12:14:18.623Z,0.66
2018-02-08T12:15:19.206Z,0.70
2018-02-08T12:16:19.778Z,0.70
2018-02-08T12:17:20.361Z,0.74
2018-02-08T12:18:20.933Z,0.68
2018-02-08T12:19:21.503Z,0.66
2018-02-08T12:20:22.072Z,0.66
2018-02-08T12:21:22.642Z,0.74
2018-02-08T12:22:23.211Z,0.69
2018-02-08T12:23:23.782Z,0.74
2018-02-08T12:24:24.351Z,0.74
2018-02-08T12:25:24.920Z,0.78
2018-02-08T12:26:25.490Z,0.80
2018-02-08T12:27:26.061Z,0.78
2018-02-08T12:28:26.628Z,0.86
2018-02-08T12:29:27.198Z,0.84
2018-02-08T12:30:27.768Z,0.96
2018-02-08T12:31:28.338Z,0.94
2018-02-08T12:32:28.918Z,0.74
2018-02-08T12:33:29.490Z,0.77
2018-02-08T12:34:30.058Z,0.81
2018-02-08T12:35:30.628Z,0.83
2018-02-08T12:36:31.196Z,0.80
2018-02-08T12:37:31.765Z,0.94
2018-02-08T12:38:32.334Z,0.94
2018-02-08T12:39:32.905Z,0.98
2018-02-08T12:40:33.473Z,1.01
2018-02-08T12:41:34.044Z,0.99
2018-02-08T12:42:34.615Z,1.17
2018-02-08T12:43:35.184Z,1.14
2018-02-08T12:44:35.753Z,0.99
2018-02-08T12:45:36.324Z,1.01
2018-02-08T12:46:36.894Z,1.13
2018-02-08T12:47:37.462Z,1.13
2018-02-08T12:48:38.035Z,1.19
2018-02-08T12:49:38.609Z,1.31
2018-02-08T12:50:39.183Z,1.02
2018-02-08T12:51:39.751Z,1.32
2018-02-08T12:52:40.322Z,1.24
2018-02-08T12:53:40.892Z,1.35
2018-02-08T12:54:41.460Z,1.31
2018-02-08T12:55:42.029Z,1.12
2018-02-08T12:56:42.599Z,1.24
2018-02-08T12:57:43.170Z,1.01
2018-02-08T12:58:43.752Z,1.12
2018-02-08T12:59:44.323Z,1.14
2018-02-08T13:00:44.891Z,1.14
2018-02-08T13:01:45.462Z,1.08
2018-02-08T13:02:46.030Z,1.16
2018-02-08T13:03:46.614Z,1.02